createdAt,value
2023-02-12T00:01:11.708Z,4.69
2023-02-12T00:06:15.843Z,4.73
2023-02-12T00:11:20.996Z,4.55
2023-02-12T00:16:25.333Z,4.58
2023-02-12T00:21:27.326Z,4.68
2023-02-12T00:26:29.194Z,4.82
2023-02-12T00:31:31.762Z,4.91
2023-02-12T00:36:33.642Z,4.96
2023-02-12T00:41:35.359Z,4.99
2023-02-12T00:46:37.037Z,4.98
2023-02-12T00:51:38.930Z,4.99
2023-02-12T00:56:41.529Z,4.97
2023-02-12T01:01:43.257Z,4.97
2023-02-12T01:06:45.088Z,4.95
2023-02-12T01:11:46.727Z,4.94
2023-02-12T01:16:48.505Z,4.96
2023-02-12T01:21:50.325Z,4.98
2023-02-12T01:26:52.022Z,4.99
2023-02-12T01:31:53.814Z,5.00
2023-02-12T01:36:55.573Z,5.01
2023-02-12T01:41:59.731Z,5.01
2023-02-12T01:47:04.270Z,5.00
2023-02-12T01:52:25.663Z,5.03
2023-02-12T01:57:33.787Z,5.06
2023-02-12T02:02:38.189Z,5.08
2023-02-12T02:07:40.691Z,5.07
2023-02-12T02:13:01.001Z,5.06
2023-02-12T02:18:17.196Z,5.07
2023-02-12T02:23:57.748Z,5.04
2023-02-12T02:28:59.457Z,4.96
2023-02-12T02:34:24.735Z,4.94
2023-02-12T02:39:39.304Z,4.98
2023-02-12T02:44:50.690Z,5.03
2023-02-12T02:50:01.805Z,5.04
2023-02-12T02:55:08.511Z,5.10
2023-02-12T03:00:26.220Z,5.06
2023-02-12T03:05:44.190Z,5.08
2023-02-12T03:10:51.349Z,5.06
2023-02-12T03:16:04.725Z,5.06
2023-02-12T03:21:20.142Z,5.08
2023-02-12T03:26:26.140Z,5.09
2023-02-12T03:31:37.894Z,5.11
2023-02-12T03:36:52.749Z,5.03
2023-02-12T03:42:04.042Z,5.03
2023-02-12T03:47:22.456Z,5.01
2023-02-12T03:52:24.371Z,4.95
2023-02-12T03:57:31.357Z,4.88
2023-02-12T04:02:34.307Z,4.82
2023-02-12T04:07:37.134Z,4.84
2023-02-12T04:13:00.304Z,4.75
2023-02-12T04:18:11.359Z,4.73
2023-02-12T04:23:51.737Z,4.77
2023-02-12T04:29:14.434Z,4.79
2023-02-12T04:34:26.634Z,4.77
2023-02-12T04:39:31.402Z,4.78
2023-02-12T04:44:38.933Z,4.82
2023-02-12T04:49:40.742Z,4.85
2023-02-12T04:54:42.663Z,4.87
2023-02-12T04:59:44.378Z,4.92
2023-02-12T05:04:46.100Z,4.96
2023-02-12T05:09:47.764Z,4.96
2023-02-12T05:14:49.361Z,4.94
2023-02-12T05:19:51.518Z,4.93
2023-02-12T05:24:53.188Z,4.96
2023-02-12T05:29:54.920Z,4.96
2023-02-12T05:34:56.634Z,4.98
2023-02-12T05:39:58.389Z,4.97
2023-02-12T05:45:00.173Z,4.98
2023-02-12T05:50:01.824Z,4.91
2023-02-12T05:55:03.743Z,4.80
2023-02-12T06:00:07.548Z,4.78
2023-02-12T06:05:13.971Z,4.78
2023-02-12T06:10:15.770Z,4.78
2023-02-12T06:15:17.601Z,4.73
2023-02-12T06:20:19.406Z,4.69
2023-02-12T06:25:21.119Z,4.64
2023-02-12T06:30:22.872Z,4.63
2023-02-12T06:35:24.590Z,4.70
2023-02-12T06:40:26.426Z,4.75
2023-02-12T06:45:28.201Z,4.81
2023-02-12T06:50:30.423Z,4.75
2023-02-12T06:55:32.126Z,4.68
2023-02-12T07:00:34.336Z,4.67
2023-02-12T07:05:39.976Z,4.71
2023-02-12T07:10:41.664Z,4.78
2023-02-12T07:15:43.364Z,4.86
2023-02-12T07:20:45.025Z,4.95
2023-02-12T07:25:55.365Z,5.04
2023-02-12T07:30:57.406Z,5.07
2023-02-12T07:36:02.767Z,5.14
2023-02-12T07:41:16.528Z,5.20
2023-02-12T07:46:21.419Z,5.26
2023-02-12T07:51:23.264Z,5.33
2023-02-12T07:56:30.856Z,5.38
2023-02-12T08:01:36.055Z,5.43
2023-02-12T08:06:40.984Z,5.47
2023-02-12T08:11:44.031Z,5.50
2023-02-12T08:16:47.825Z,5.52
2023-02-12T08:21:51.810Z,5.55
2023-02-12T08:26:53.911Z,5.53
2023-02-12T08:32:01.892Z,5.49
2023-02-12T08:37:05.818Z,5.48
2023-02-12T08:42:07.517Z,5.47
2023-02-12T08:47:10.143Z,5.51
2023-02-12T08:52:11.859Z,5.55
2023-02-12T08:57:13.648Z,5.60
2023-02-12T09:02:15.395Z,5.68
2023-02-12T09:07:17.116Z,5.76
2023-02-12T09:12:18.753Z,5.83
2023-02-12T09:17:20.440Z,5.85
2023-02-12T09:22:22.118Z,5.87
2023-02-12T09:27:24.559Z,5.94
2023-02-12T09:32:26.428Z,5.95
2023-02-12T09:37:28.213Z,5.95
2023-02-12T09:42:57.503Z,6.04
2023-02-12T09:48:18.328Z,6.09
2023-02-12T09:53:24.813Z,6.10
2023-02-12T09:58:35.615Z,6.06
2023-02-12T10:03:37.361Z,6.07
2023-02-12T10:08:50.884Z,6.05
2023-02-12T10:13:53.855Z,6.14
2023-02-12T10:19:01.582Z,6.04
2023-02-12T10:24:28.425Z,5.98
2023-02-12T10:29:38.115Z,5.98
2023-02-12T10:34:41.958Z,5.93
2023-02-12T10:39:51.956Z,5.86
2023-02-12T10:44:53.652Z,5.79
2023-02-12T10:50:00.617Z,5.87
2023-02-12T10:55:02.686Z,5.84
2023-02-12T11:00:26.307Z,5.87
2023-02-12T11:05:31.872Z,5.95
2023-02-12T11:10:40.311Z,6.05
2023-02-12T11:15:49.378Z,6.08
2023-02-12T11:20:56.506Z,6.11
2023-02-12T11:26:07.523Z,6.22
2023-02-12T11:31:12.063Z,6.25
2023-02-12T11:36:20.933Z,6.23
2023-02-12T11:41:38.563Z,6.26
2023-02-12T11:46:46.997Z,6.29
2023-02-12T11:51:49.792Z,6.40
2023-02-12T11:56:51.465Z,6.59
2023-02-12T12:01:57.796Z,6.67
2023-02-12T12:07:12.476Z,6.71
2023-02-12T12:12:41.666Z,6.72
2023-02-12T12:18:15.143Z,6.60
2023-02-12T12:23:25.263Z,6.65
2023-02-12T12:28:33.213Z,6.79
2023-02-12T12:33:51.588Z,6.82
2023-02-12T12:39:04.318Z,6.83
2023-02-12T12:44:24.579Z,6.76
2023-02-12T12:49:35.613Z,6.80
2023-02-12T12:54:55.536Z,6.80
2023-02-12T13:00:33.492Z,6.76
2023-02-12T13:06:07.540Z,6.80
2023-02-12T13:11:16.854Z,6.82
2023-02-12T13:16:29.279Z,6.89
2023-02-12T13:22:06.751Z,6.99
2023-02-12T13:27:16.702Z,7.06
2023-02-12T13:32:36.596Z,7.11
2023-02-12T13:37:47.144Z,7.21
2023-02-12T13:43:29.939Z,7.18
2023-02-12T13:48:59.573Z,7.13
2023-02-12T13:54:23.243Z,7.12
2023-02-12T13:59:39.901Z,7.19
2023-02-12T14:04:41.891Z,7.23
2023-02-12T14:09:49.731Z,7.36
2023-02-12T14:14:55.271Z,7.53
2023-02-12T14:20:23.843Z,7.51
2023-02-12T14:25:25.575Z,7.51
2023-02-12T14:30:38.343Z,7.56
2023-02-12T14:35:42.835Z,7.66
2023-02-12T14:40:46.973Z,7.81
2023-02-12T14:45:49.099Z,7.98
2023-02-12T14:50:52.233Z,8.25
2023-02-12T14:55:55.797Z,8.37
2023-02-12T15:01:01.354Z,8.38
2023-02-12T15:06:03.001Z,8.38
2023-02-12T15:11:23.329Z,8.43
2023-02-12T15:16:54.218Z,8.38
2023-02-12T15:21:56.878Z,8.33
2023-02-12T15:27:00.732Z,8.30
2023-02-12T15:32:07.764Z,8.22
2023-02-12T15:37:09.980Z,8.15
2023-02-12T15:42:35.034Z,8.08
2023-02-12T15:47:36.763Z,8.00
2023-02-12T15:52:41.189Z,7.90
2023-02-12T15:57:48.755Z,7.78
2023-02-12T16:02:52.856Z,7.65
2023-02-12T16:07:55.071Z,7.53
2023-02-12T16:12:56.945Z,7.37
2023-02-12T16:17:59.908Z,7.17
2023-02-12T16:23:06.523Z,6.70
2023-02-12T16:28:22.373Z,6.40
2023-02-12T16:33:31.907Z,6.17
2023-02-12T16:38:44.631Z,5.81
2023-02-12T16:43:51.262Z,5.65
2023-02-12T16:48:55.786Z,5.50
2023-02-12T16:54:03.075Z,5.12
2023-02-12T16:59:05.047Z,4.81
2023-02-12T17:04:09.072Z,4.78
2023-02-12T17:09:11.161Z,4.72
2023-02-12T17:14:16.613Z,4.56
2023-02-12T17:19:18.651Z,4.46
2023-02-12T17:24:20.298Z,4.36
2023-02-12T17:29:24.282Z,4.21
2023-02-12T17:34:27.552Z,4.01
2023-02-12T17:39:30.743Z,3.82
2023-02-12T17:44:32.471Z,3.70
2023-02-12T17:49:35.450Z,3.57
2023-02-12T17:54:37.357Z,3.41
2023-02-12T17:59:39.116Z,3.46
2023-02-12T18:04:41.024Z,3.46
2023-02-12T18:09:43.385Z,3.34
2023-02-12T18:14:45.277Z,3.19
2023-02-12T18:19:48.003Z,3.19
2023-02-12T18:24:50.345Z,3.16
2023-02-12T18:29:51.998Z,3.03
2023-02-12T18:34:55.356Z,2.91
2023-02-12T18:39:57.117Z,2.91
2023-02-12T18:44:58.885Z,2.84
2023-02-12T18:50:00.777Z,2.78
2023-02-12T18:55:02.504Z,2.81
2023-02-12T19:00:04.933Z,2.82
2023-02-12T19:05:06.974Z,2.66
2023-02-12T19:10:08.920Z,2.50
2023-02-12T19:15:10.672Z,2.50
2023-02-12T19:20:14.646Z,2.56
2023-02-12T19:25:16.698Z,2.55
2023-02-12T19:30:18.806Z,2.46
2023-02-12T19:35:20.758Z,2.33
2023-02-12T19:40:22.680Z,2.25
2023-02-12T19:45:24.435Z,2.16
2023-02-12T19:50:26.077Z,2.22
2023-02-12T19:55:27.756Z,2.34
2023-02-12T20:00:29.505Z,2.29
2023-02-12T20:05:31.196Z,2.27
2023-02-12T20:10:32.908Z,2.27
2023-02-12T20:15:38.694Z,2.18
2023-02-12T20:20:41.196Z,2.02
2023-02-12T20:25:44.768Z,2.12
2023-02-12T20:30:47.797Z,2.24
2023-02-12T20:35:56.980Z,2.30
2023-02-12T20:41:03.353Z,2.30
2023-02-12T20:46:06.361Z,2.16
2023-02-12T20:51:11.088Z,2.16
2023-02-12T20:56:22.457Z,2.18
2023-02-12T21:01:27.283Z,2.20
2023-02-12T21:06:29.026Z,2.15
2023-02-12T21:11:30.739Z,2.14
2023-02-12T21:16:35.049Z,2.15
2023-02-12T21:21:39.042Z,2.13
2023-02-12T21:26:40.698Z,2.12
2023-02-12T21:31:44.693Z,2.07
2023-02-12T21:36:47.827Z,2.04
2023-02-12T21:41:50.921Z,2.06
2023-02-12T21:46:53.462Z,2.06
2023-02-12T21:51:58.650Z,1.87
2023-02-12T21:57:00.497Z,1.77
2023-02-12T22:02:02.381Z,1.86
2023-02-12T22:07:04.146Z,1.84
2023-02-12T22:12:06.313Z,1.74
2023-02-12T22:17:08.019Z,1.63
2023-02-12T22:22:09.667Z,1.64
2023-02-12T22:27:11.344Z,1.59
2023-02-12T22:32:13.231Z,1.48
2023-02-12T22:37:15.135Z,1.45
2023-02-12T22:42:16.885Z,1.42
2023-02-12T22:47:18.560Z,1.45
2023-02-12T22:52:20.555Z,1.54
2023-02-12T22:57:22.249Z,1.65
2023-02-12T23:02:24.091Z,1.79
2023-02-12T23:07:26.266Z,1.91
2023-02-12T23:12:27.925Z,1.99
2023-02-12T23:17:29.613Z,2.09
2023-02-12T23:22:31.282Z,2.17
2023-02-12T23:27:33.013Z,2.21
2023-02-12T23:32:34.652Z,2.28
2023-02-12T23:37:36.300Z,2.35
2023-02-12T23:42:38.058Z,2.35
2023-02-12T23:47:39.935Z,2.35
2023-02-12T23:52:41.577Z,2.33
2023-02-12T23:57:43.200Z,2.36
